Terminal Aerodrome Forecast
Issued by NWS

Home | Current Version | Previous Version | Text Only | Print | Product List | Glossary On
Versions: 1 2 3 4 5 6 7 8 9 10 11 12 13 14 15
000
FTUS46 KMTR 241700
TAFSTS
TAF
KSTS 241735Z 2418/2518 32003KT 1/4SM FG VV002
     FM241900 18008KT P6SM BKN250
     FM250300 15005KT P6SM BKN050
     FM251000 VRB03KT 1/4SM FG VV002
     FM251300 16009G18KT 2SM -RA BR BKN006=

USA.gov is the U.S. government's official web portal to all federal, state and local government web resources and services.